createdAt,value
2019-05-25T00:00:52.823Z,18.82
2019-05-25T00:01:52.805Z,18.79
2019-05-25T00:02:52.809Z,18.70
2019-05-25T00:03:52.863Z,18.67
2019-05-25T00:04:52.871Z,18.55
2019-05-25T00:05:52.837Z,18.61
2019-05-25T00:06:52.841Z,18.61
2019-05-25T00:07:52.866Z,18.63
2019-05-25T00:08:52.874Z,18.61
2019-05-25T00:09:52.875Z,18.63
2019-05-25T00:10:52.895Z,18.52
2019-05-25T00:11:52.968Z,18.60
2019-05-25T00:12:52.923Z,18.57
2019-05-25T00:13:52.937Z,18.53
2019-05-25T00:14:52.949Z,18.52
2019-05-25T00:15:52.942Z,18.52
2019-05-25T00:16:52.929Z,18.42
2019-05-25T00:17:52.961Z,18.51
2019-05-25T00:18:53.021Z,18.43
2019-05-25T00:19:52.981Z,18.48
2019-05-25T00:20:52.996Z,18.37
2019-05-25T00:21:52.987Z,18.37
2019-05-25T00:22:52.994Z,18.33
2019-05-25T00:23:53.015Z,18.37
2019-05-25T00:24:53.029Z,18.33
2019-05-25T00:25:53.023Z,18.30
2019-05-25T00:26:53.039Z,18.30
2019-05-25T00:27:53.042Z,18.28
2019-05-25T00:28:53.070Z,18.31
2019-05-25T00:29:53.095Z,18.18
2019-05-25T00:30:53.084Z,18.31
2019-05-25T00:31:53.136Z,18.24
2019-05-25T00:32:53.080Z,18.24
2019-05-25T00:33:53.087Z,18.31
2019-05-25T00:34:53.125Z,18.31
2019-05-25T00:35:53.122Z,18.26
2019-05-25T00:36:53.133Z,18.24
2019-05-25T00:37:53.155Z,18.23
2019-05-25T00:38:53.190Z,18.27
2019-05-25T00:39:53.147Z,18.27
2019-05-25T00:40:53.179Z,18.27
2019-05-25T00:41:53.205Z,18.15
2019-05-25T00:42:53.188Z,18.18
2019-05-25T00:43:53.219Z,18.15
2019-05-25T00:44:53.207Z,18.21
2019-05-25T00:45:53.221Z,18.02
2019-05-25T00:46:53.219Z,18.02
2019-05-25T00:47:53.227Z,18.00
2019-05-25T00:48:53.242Z,17.91
2019-05-25T00:49:53.236Z,17.95
2019-05-25T00:50:53.308Z,17.91
2019-05-25T00:51:53.269Z,17.76
2019-05-25T00:52:53.282Z,17.79
2019-05-25T00:53:53.280Z,17.78
2019-05-25T00:54:53.292Z,17.76
2019-05-25T00:55:53.302Z,17.82
2019-05-25T00:56:53.371Z,17.71
2019-05-25T00:57:53.306Z,17.73
2019-05-25T00:58:53.342Z,17.57
2019-05-25T00:59:53.323Z,17.66
2019-05-25T01:00:53.334Z,17.57
2019-05-25T01:01:53.387Z,17.72
2019-05-25T01:02:53.379Z,17.69
2019-05-25T01:03:53.378Z,17.72
2019-05-25T01:04:53.366Z,17.66
2019-05-25T01:05:53.381Z,17.56
2019-05-25T01:06:53.424Z,17.57
2019-05-25T01:07:53.423Z,17.59
2019-05-25T01:08:53.403Z,17.54
2019-05-25T01:09:53.421Z,17.57
2019-05-25T01:10:53.444Z,17.44
2019-05-25T01:11:53.444Z,17.37
2019-05-25T01:12:53.478Z,17.37
2019-05-25T01:13:53.450Z,17.42
2019-05-25T01:14:53.481Z,17.47
2019-05-25T01:15:53.467Z,17.47
2019-05-25T01:16:53.501Z,17.46
2019-05-25T01:17:53.529Z,17.39
2019-05-25T01:18:53.491Z,17.46
2019-05-25T01:19:53.497Z,17.32
2019-05-25T01:20:53.540Z,17.31
2019-05-25T01:21:53.632Z,17.42
2019-05-25T01:22:53.570Z,17.38
2019-05-25T01:23:53.545Z,17.37
2019-05-25T01:24:53.567Z,17.31
2019-05-25T01:25:53.577Z,17.30
2019-05-25T01:26:53.581Z,17.35
2019-05-25T01:27:53.573Z,17.32
2019-05-25T01:28:53.632Z,17.22
2019-05-25T01:29:53.595Z,17.27
2019-05-25T01:30:53.611Z,17.24
2019-05-25T01:31:53.638Z,17.17
2019-05-25T01:32:53.625Z,17.24
2019-05-25T01:33:53.656Z,17.16
2019-05-25T01:34:53.634Z,17.20
2019-05-25T01:35:53.655Z,17.12
2019-05-25T01:36:53.648Z,17.07
2019-05-25T01:37:53.674Z,17.02
2019-05-25T01:38:53.685Z,17.02
2019-05-25T01:39:53.717Z,16.95
2019-05-25T01:40:53.690Z,16.89
2019-05-25T01:41:53.701Z,16.94
2019-05-25T01:42:53.725Z,16.98
2019-05-25T01:43:53.721Z,16.97
2019-05-25T01:44:53.787Z,16.99
2019-05-25T01:45:53.728Z,16.94
2019-05-25T01:46:53.772Z,16.98
2019-05-25T01:47:53.762Z,16.94
2019-05-25T01:48:53.750Z,16.94
2019-05-25T01:49:53.814Z,16.97
2019-05-25T01:50:53.767Z,16.94
2019-05-25T01:51:53.776Z,16.92
2019-05-25T01:52:53.802Z,16.99
2019-05-25T01:53:53.848Z,16.84
2019-05-25T01:54:59.716Z,16.82
2019-05-25T01:55:53.830Z,16.89
2019-05-25T01:56:53.869Z,16.82
2019-05-25T01:57:53.837Z,16.69
2019-05-25T01:58:53.848Z,16.72
2019-05-25T01:59:53.908Z,16.76
2019-05-25T02:00:53.891Z,16.76
2019-05-25T02:01:53.860Z,16.69
2019-05-25T02:02:53.880Z,16.69
2019-05-25T02:03:53.892Z,16.64
2019-05-25T02:04:53.889Z,16.68
2019-05-25T02:05:53.960Z,16.57
2019-05-25T02:06:53.906Z,16.47
2019-05-25T02:07:53.923Z,16.58
2019-05-25T02:08:53.925Z,16.50
2019-05-25T02:09:53.931Z,16.44
2019-05-25T02:10:53.965Z,16.39
2019-05-25T02:11:54.546Z,16.50
2019-05-25T02:12:53.972Z,16.40
2019-05-25T02:13:54.007Z,16.41
2019-05-25T02:14:54.079Z,16.24
2019-05-25T02:15:53.994Z,16.29
2019-05-25T02:16:54.231Z,16.28
2019-05-25T02:17:53.998Z,16.25
2019-05-25T02:18:54.062Z,16.24
2019-05-25T02:19:54.013Z,16.24
2019-05-25T02:20:54.030Z,16.17
2019-05-25T02:21:54.057Z,16.17
2019-05-25T02:22:54.066Z,16.02
2019-05-25T02:23:54.064Z,16.22
2019-05-25T02:24:54.072Z,16.02
2019-05-25T02:25:54.085Z,15.99
2019-05-25T02:26:54.201Z,15.96
2019-05-25T02:27:54.151Z,16.02
2019-05-25T02:28:54.105Z,15.94
2019-05-25T02:29:54.114Z,15.80
2019-05-25T02:30:54.114Z,15.76
2019-05-25T02:31:54.105Z,15.76
2019-05-25T02:32:54.135Z,15.72
2019-05-25T02:33:54.157Z,15.90
2019-05-25T02:34:54.192Z,15.76
2019-05-25T02:35:54.147Z,15.78
2019-05-25T02:36:54.166Z,15.76
2019-05-25T02:37:54.182Z,15.80
2019-05-25T02:38:54.233Z,15.67
2019-05-25T02:39:54.182Z,15.57
2019-05-25T02:40:54.210Z,15.66
2019-05-25T02:41:54.201Z,15.65
2019-05-25T02:42:54.213Z,15.65
2019-05-25T02:43:54.226Z,15.57
2019-05-25T02:44:54.239Z,15.66
2019-05-25T02:45:54.225Z,15.66
2019-05-25T02:46:54.245Z,15.54
2019-05-25T02:47:54.231Z,15.52
2019-05-25T02:48:54.284Z,15.50
2019-05-25T02:49:54.280Z,15.57
2019-05-25T02:50:54.274Z,15.51
2019-05-25T02:51:54.279Z,15.59
2019-05-25T02:52:54.302Z,15.47
2019-05-25T02:53:54.306Z,15.48
2019-05-25T02:54:54.312Z,15.44
2019-05-25T02:55:54.303Z,15.47
2019-05-25T02:56:54.318Z,15.44
2019-05-25T02:57:54.325Z,15.44
2019-05-25T02:58:54.355Z,15.43
2019-05-25T02:59:54.382Z,15.37
2019-05-25T03:00:54.355Z,15.39
2019-05-25T03:01:54.343Z,15.43
2019-05-25T03:02:54.372Z,15.35
2019-05-25T03:03:54.419Z,15.36
2019-05-25T03:04:54.375Z,15.39
2019-05-25T03:05:54.389Z,15.32
2019-05-25T03:06:54.402Z,15.32
2019-05-25T03:07:54.417Z,15.26
2019-05-25T03:08:54.417Z,15.22
2019-05-25T03:09:54.443Z,15.15
2019-05-25T03:10:54.417Z,15.14
2019-05-25T03:11:54.428Z,15.25
2019-05-25T03:12:54.450Z,15.14
2019-05-25T03:13:54.506Z,15.25
2019-05-25T03:14:54.457Z,15.32
2019-05-25T03:15:54.468Z,15.26
2019-05-25T03:16:54.502Z,15.27
2019-05-25T03:17:54.475Z,15.43
2019-05-25T03:18:54.486Z,15.47
2019-05-25T03:19:54.523Z,15.44
2019-05-25T03:20:54.522Z,15.47
2019-05-25T03:21:54.562Z,15.41
2019-05-25T03:22:54.523Z,15.43
2019-05-25T03:23:54.516Z,15.44
2019-05-25T03:24:54.537Z,15.44
2019-05-25T03:25:54.547Z,15.44
2019-05-25T03:26:54.570Z,15.44
2019-05-25T03:27:54.556Z,15.44
2019-05-25T03:28:54.562Z,15.48
2019-05-25T03:29:54.575Z,15.45
2019-05-25T03:30:54.578Z,15.48
2019-05-25T03:31:54.642Z,15.50
2019-05-25T03:32:54.605Z,15.48
2019-05-25T03:33:54.595Z,15.51
2019-05-25T03:34:54.615Z,15.52
2019-05-25T03:35:54.610Z,15.52
2019-05-25T03:36:54.648Z,15.55
2019-05-25T03:37:54.686Z,15.60
2019-05-25T03:38:54.675Z,15.48
2019-05-25T03:39:54.675Z,15.47
2019-05-25T03:40:54.674Z,15.54
2019-05-25T03:41:54.658Z,15.70
2019-05-25T03:42:54.677Z,15.63
2019-05-25T03:43:54.713Z,15.70
2019-05-25T03:44:54.701Z,15.69
2019-05-25T03:45:54.719Z,15.76
2019-05-25T03:46:54.700Z,15.80
2019-05-25T03:47:54.716Z,15.76
2019-05-25T03:48:55.047Z,15.78
2019-05-25T03:49:54.723Z,15.78
2019-05-25T03:50:54.756Z,15.69
2019-05-25T03:51:54.746Z,15.67
2019-05-25T03:52:54.779Z,15.50
2019-05-25T03:53:54.835Z,15.52
2019-05-25T03:54:54.766Z,15.55
2019-05-25T03:56:05.226Z,15.43
2019-05-25T03:56:54.814Z,15.45
2019-05-25T03:57:54.797Z,15.47
2019-05-25T03:58:54.811Z,15.48
2019-05-25T03:59:54.838Z,15.65
2019-05-25T04:00:54.835Z,15.66
2019-05-25T04:01:54.826Z,15.75
2019-05-25T04:02:54.828Z,15.84
2019-05-25T04:03:54.869Z,15.80
2019-05-25T04:04:54.875Z,15.76
2019-05-25T04:05:54.877Z,15.78
2019-05-25T04:06:54.869Z,15.81
2019-05-25T04:07:54.888Z,15.83
2019-05-25T04:08:54.894Z,15.88
2019-05-25T04:09:54.879Z,15.99
2019-05-25T04:10:54.946Z,16.02
2019-05-25T04:11:54.900Z,16.03
2019-05-25T04:12:54.916Z,16.13
2019-05-25T04:13:54.947Z,16.21
2019-05-25T04:14:54.953Z,16.31
2019-05-25T04:15:54.982Z,16.36
2019-05-25T04:16:54.950Z,16.28
2019-05-25T04:17:54.966Z,16.31
2019-05-25T04:18:54.964Z,16.31
2019-05-25T04:19:54.980Z,16.29
2019-05-25T04:20:55.063Z,16.29
2019-05-25T04:21:55.019Z,16.49
2019-05-25T04:22:55.005Z,16.57
2019-05-25T04:23:55.003Z,16.65
2019-05-25T04:24:55.017Z,16.74
2019-05-25T04:25:55.091Z,16.89
2019-05-25T04:26:55.059Z,17.02
2019-05-25T04:27:55.065Z,17.22
2019-05-25T04:28:55.049Z,17.49
2019-05-25T04:29:55.062Z,17.66
2019-05-25T04:30:55.076Z,18.09
2019-05-25T04:31:55.093Z,18.53
2019-05-25T04:32:55.113Z,18.86
2019-05-25T04:33:55.116Z,19.35
2019-05-25T04:34:55.133Z,19.47
2019-05-25T04:35:55.124Z,19.67
2019-05-25T04:36:55.141Z,19.90
2019-05-25T04:37:55.133Z,20.00
2019-05-25T04:38:55.156Z,20.19
2019-05-25T04:39:55.159Z,20.21
2019-05-25T04:40:55.156Z,20.18
2019-05-25T04:41:55.214Z,20.33
2019-05-25T04:42:55.182Z,20.39
2019-05-25T04:43:55.221Z,20.32
2019-05-25T04:44:55.192Z,20.33
2019-05-25T04:45:55.210Z,20.48
2019-05-25T04:46:55.263Z,20.56
2019-05-25T04:47:55.297Z,20.34
2019-05-25T04:48:55.234Z,20.52
2019-05-25T04:49:55.239Z,20.83
2019-05-25T04:50:55.283Z,21.03
2019-05-25T04:51:55.275Z,21.04
2019-05-25T04:52:55.293Z,21.23
2019-05-25T04:53:55.312Z,21.51
2019-05-25T04:54:55.360Z,21.84
2019-05-25T04:55:55.315Z,22.28
2019-05-25T04:56:55.321Z,22.53
2019-05-25T04:57:55.370Z,22.40
2019-05-25T04:58:55.361Z,22.68
2019-05-25T04:59:55.379Z,22.93
2019-05-25T05:00:55.399Z,23.29
2019-05-25T05:01:55.449Z,23.51
2019-05-25T05:02:55.397Z,23.85
2019-05-25T05:03:55.422Z,23.92
2019-05-25T05:04:55.415Z,24.14
2019-05-25T05:05:55.435Z,24.37
2019-05-25T05:06:55.469Z,24.58
2019-05-25T05:07:55.509Z,24.77
2019-05-25T05:08:55.490Z,24.82
2019-05-25T05:10:02.694Z,24.53
2019-05-25T05:10:55.497Z,24.55
2019-05-25T05:11:55.512Z,24.38
2019-05-25T05:12:55.621Z,24.62
2019-05-25T05:13:55.527Z,24.58
2019-05-25T05:14:56.569Z,25.01
2019-05-25T05:15:55.552Z,25.16
2019-05-25T05:16:55.562Z,25.07
2019-05-25T05:17:55.585Z,25.00
2019-05-25T05:18:55.620Z,24.38
2019-05-25T05:19:55.625Z,24.94
2019-05-25T05:20:55.647Z,25.29
2019-05-25T05:21:55.641Z,25.54
2019-05-25T05:22:55.638Z,25.52
2019-05-25T05:23:55.674Z,25.88
2019-05-25T05:24:55.678Z,25.56
2019-05-25T05:25:55.708Z,25.01
2019-05-25T05:26:56.528Z,24.69
2019-05-25T05:27:55.720Z,24.75
2019-05-25T05:28:55.758Z,24.71
2019-05-25T05:29:55.740Z,24.79
2019-05-25T05:30:55.792Z,24.48
2019-05-25T05:31:55.766Z,24.59
2019-05-25T05:32:55.778Z,24.85
2019-05-25T05:33:55.809Z,25.24
2019-05-25T05:34:55.837Z,25.29
2019-05-25T05:35:55.836Z,25.33
2019-05-25T05:36:55.839Z,25.24
2019-05-25T05:37:55.870Z,24.81
2019-05-25T05:38:55.894Z,24.69
2019-05-25T05:39:55.900Z,24.97
2019-05-25T05:40:55.916Z,25.31
2019-05-25T05:41:55.896Z,25.74
2019-05-25T05:42:55.914Z,26.23
2019-05-25T05:43:55.931Z,26.36
2019-05-25T05:44:55.958Z,26.03
2019-05-25T05:45:56.063Z,26.49
2019-05-25T05:46:55.994Z,26.83
2019-05-25T05:47:56.007Z,26.96
2019-05-25T05:48:56.009Z,26.83
2019-05-25T05:49:56.039Z,27.40
2019-05-25T05:50:56.076Z,27.40
2019-05-25T05:51:56.053Z,27.20
2019-05-25T05:52:56.117Z,27.64
2019-05-25T05:53:56.176Z,27.58
2019-05-25T05:54:56.096Z,27.41
2019-05-25T05:55:56.250Z,27.26
2019-05-25T05:57:11.067Z,26.82
2019-05-25T05:57:56.174Z,26.91
2019-05-25T05:58:56.152Z,26.91
2019-05-25T05:59:56.179Z,27.16
2019-05-25T06:00:56.210Z,27.34
2019-05-25T06:01:56.213Z,27.07
2019-05-25T06:02:56.255Z,27.16
2019-05-25T06:03:56.270Z,27.37
2019-05-25T06:04:56.257Z,27.93
2019-05-25T06:05:56.261Z,27.88
2019-05-25T06:06:56.286Z,27.58
2019-05-25T06:07:56.320Z,27.67
2019-05-25T06:08:56.393Z,28.03
2019-05-25T06:09:56.329Z,27.40
2019-05-25T06:10:56.351Z,26.91
2019-05-25T06:11:56.369Z,26.51
2019-05-25T06:12:56.383Z,26.86
2019-05-25T06:13:56.413Z,26.82
2019-05-25T06:14:56.436Z,26.64
2019-05-25T06:15:56.446Z,26.81
2019-05-25T06:16:56.455Z,26.68
2019-05-25T06:17:56.444Z,26.59
2019-05-25T06:18:56.491Z,26.51
2019-05-25T06:19:56.517Z,26.49
2019-05-25T06:20:56.495Z,26.71
2019-05-25T06:21:56.546Z,26.70
2019-05-25T06:22:56.720Z,26.81
2019-05-25T06:23:56.576Z,26.73
2019-05-25T06:24:56.611Z,26.73
2019-05-25T06:25:56.600Z,26.73
2019-05-25T06:26:56.577Z,26.44
2019-05-25T06:27:56.609Z,25.88
2019-05-25T06:28:56.675Z,25.96
2019-05-25T06:29:56.627Z,25.77
2019-05-25T06:30:56.705Z,25.63
2019-05-25T06:31:56.686Z,25.74
2019-05-25T06:32:56.683Z,25.49
2019-05-25T06:33:56.698Z,25.77
2019-05-25T06:34:56.826Z,26.27
2019-05-25T06:35:56.761Z,26.41
2019-05-25T06:36:56.733Z,26.89
2019-05-25T06:37:56.760Z,27.22
2019-05-25T06:38:56.783Z,27.40
2019-05-25T06:39:56.780Z,27.05
2019-05-25T06:40:56.816Z,26.55
2019-05-25T06:41:56.831Z,26.34
2019-05-25T06:42:56.819Z,26.01
2019-05-25T06:43:56.863Z,25.81
2019-05-25T06:44:56.851Z,25.25
2019-05-25T06:45:56.876Z,25.03
2019-05-25T06:46:56.976Z,24.93
2019-05-25T06:47:56.892Z,24.85
2019-05-25T06:48:56.957Z,24.41
2019-05-25T06:49:56.963Z,24.22
2019-05-25T06:50:56.963Z,24.06
2019-05-25T06:51:57.066Z,24.01
2019-05-25T06:52:58.052Z,24.25
2019-05-25T06:53:56.977Z,24.34
2019-05-25T06:54:56.995Z,24.48
2019-05-25T06:55:57.037Z,24.25
2019-05-25T06:56:57.062Z,23.95
2019-05-25T06:57:57.048Z,23.81
2019-05-25T06:58:57.279Z,23.66
2019-05-25T06:59:57.287Z,23.91
2019-05-25T07:00:57.071Z,23.96
2019-05-25T07:01:57.130Z,24.01
2019-05-25T07:02:57.092Z,24.07
2019-05-25T07:03:57.123Z,24.06
2019-05-25T07:04:57.128Z,23.94
2019-05-25T07:05:57.147Z,23.67
2019-05-25T07:06:57.179Z,23.59
2019-05-25T07:07:57.186Z,23.49
2019-05-25T07:08:57.228Z,23.37
2019-05-25T07:09:57.196Z,23.39
2019-05-25T07:10:57.208Z,22.96
2019-05-25T07:11:57.219Z,22.81
2019-05-25T07:12:57.312Z,22.71
2019-05-25T07:13:57.292Z,22.34
2019-05-25T07:14:57.260Z,22.33
2019-05-25T07:15:57.285Z,22.53
2019-05-25T07:16:57.303Z,22.53
2019-05-25T07:17:57.304Z,22.55
2019-05-25T07:18:58.052Z,22.41
2019-05-25T07:19:57.312Z,22.34
2019-05-25T07:20:57.365Z,22.23
2019-05-25T07:21:57.350Z,22.12
2019-05-25T07:22:57.360Z,22.14
2019-05-25T07:23:57.411Z,22.19
2019-05-25T07:24:57.390Z,22.21
2019-05-25T07:25:57.490Z,22.23
2019-05-25T07:26:57.390Z,22.12
2019-05-25T07:28:00.075Z,21.92
2019-05-25T07:28:57.466Z,21.72
2019-05-25T07:29:57.434Z,21.83
2019-05-25T07:30:57.458Z,21.65
2019-05-25T07:31:57.474Z,21.63
2019-05-25T07:32:57.484Z,21.44
2019-05-25T07:33:57.482Z,21.13
2019-05-25T07:34:57.541Z,21.15
2019-05-25T07:35:57.531Z,21.20
2019-05-25T07:36:57.526Z,21.19
2019-05-25T07:37:57.551Z,21.23
2019-05-25T07:38:57.535Z,21.26
2019-05-25T07:39:57.548Z,21.25
2019-05-25T07:40:57.570Z,21.28
2019-05-25T07:41:57.573Z,21.17
2019-05-25T07:42:57.633Z,21.19
2019-05-25T07:43:57.602Z,21.26
2019-05-25T07:44:57.610Z,21.14
2019-05-25T07:45:57.654Z,21.17
2019-05-25T07:46:57.670Z,21.26
2019-05-25T07:47:57.699Z,21.22
2019-05-25T07:48:57.644Z,21.17
2019-05-25T07:49:57.684Z,21.19
2019-05-25T07:50:57.667Z,21.14
2019-05-25T07:51:57.708Z,21.15
2019-05-25T07:52:57.812Z,21.01
2019-05-25T07:53:57.729Z,21.07
2019-05-25T07:54:57.749Z,20.98
2019-05-25T07:55:57.747Z,21.05
2019-05-25T07:56:57.790Z,21.10
2019-05-25T07:57:57.744Z,21.05
2019-05-25T07:58:57.857Z,21.07
2019-05-25T07:59:57.774Z,21.04
2019-05-25T08:00:57.926Z,21.08
2019-05-25T08:01:57.832Z,21.05
2019-05-25T08:02:57.860Z,21.01
2019-05-25T08:03:57.852Z,21.04
2019-05-25T08:04:57.849Z,21.22
2019-05-25T08:05:57.849Z,21.23
2019-05-25T08:06:57.861Z,21.22
2019-05-25T08:07:57.931Z,21.43
2019-05-25T08:08:57.877Z,21.37
2019-05-25T08:09:57.891Z,21.40
2019-05-25T08:10:57.891Z,21.28
2019-05-25T08:11:58.576Z,21.35
2019-05-25T08:12:57.984Z,21.29
2019-05-25T08:13:57.931Z,21.25
2019-05-25T08:14:57.948Z,21.23
2019-05-25T08:15:57.976Z,21.15
2019-05-25T08:16:57.959Z,20.89
2019-05-25T08:17:58.068Z,20.78
2019-05-25T08:18:58.036Z,20.85
2019-05-25T08:19:57.998Z,20.78
2019-05-25T08:20:58.092Z,20.85
2019-05-25T08:21:58.030Z,20.88
2019-05-25T08:22:58.097Z,21.00
2019-05-25T08:23:58.148Z,20.93
2019-05-25T08:24:58.110Z,20.88
2019-05-25T08:25:58.096Z,20.60
2019-05-25T08:26:58.084Z,20.67
2019-05-25T08:27:58.093Z,20.53
2019-05-25T08:28:58.132Z,20.63
2019-05-25T08:29:58.192Z,20.70
2019-05-25T08:31:01.137Z,20.68
2019-05-25T08:31:58.148Z,20.71
2019-05-25T08:32:58.149Z,20.56
2019-05-25T08:33:58.164Z,20.67
2019-05-25T08:34:58.257Z,20.75
2019-05-25T08:35:58.187Z,20.63
2019-05-25T08:36:58.212Z,20.53
2019-05-25T08:37:58.223Z,20.53
2019-05-25T08:38:58.247Z,20.33
2019-05-25T08:39:58.293Z,20.34
2019-05-25T08:40:58.253Z,20.34
2019-05-25T08:41:58.234Z,20.42
2019-05-25T08:42:58.261Z,20.49
2019-05-25T08:43:58.270Z,20.49
2019-05-25T08:44:58.332Z,20.50
2019-05-25T08:45:58.359Z,20.50
2019-05-25T08:46:58.299Z,20.48
2019-05-25T08:47:58.303Z,20.52
2019-05-25T08:48:58.313Z,20.49
2019-05-25T08:49:58.380Z,20.53
2019-05-25T08:50:59.736Z,20.39
2019-05-25T08:51:58.379Z,20.44
2019-05-25T08:52:58.397Z,20.24
2019-05-25T08:53:58.373Z,20.18
2019-05-25T08:54:58.386Z,20.18
2019-05-25T08:55:58.409Z,20.21
2019-05-25T08:56:58.413Z,20.21
2019-05-25T08:57:58.565Z,20.22
2019-05-25T08:58:58.428Z,20.40
2019-05-25T08:59:58.451Z,20.33
2019-05-25T09:00:58.483Z,20.21
2019-05-25T09:01:58.461Z,20.32
2019-05-25T09:02:58.501Z,20.39
2019-05-25T09:03:58.496Z,20.40
2019-05-25T09:04:58.487Z,20.50
2019-05-25T09:05:58.538Z,20.53
2019-05-25T09:06:58.588Z,20.46
2019-05-25T09:07:59.152Z,20.42
2019-05-25T09:08:58.533Z,20.34
2019-05-25T09:09:58.641Z,20.33
2019-05-25T09:10:58.573Z,20.37
2019-05-25T09:11:58.564Z,20.36
2019-05-25T09:12:58.586Z,20.42
2019-05-25T09:13:58.580Z,20.42
2019-05-25T09:14:58.636Z,20.33
2019-05-25T09:15:58.602Z,20.22
2019-05-25T09:16:58.629Z,20.07
2019-05-25T09:17:58.656Z,19.99
2019-05-25T09:18:58.712Z,19.67
2019-05-25T09:19:58.667Z,19.77
2019-05-25T09:20:59.243Z,19.81
2019-05-25T09:22:02.473Z,19.72
2019-05-25T09:22:58.673Z,19.78
2019-05-25T09:23:59.763Z,19.77
2019-05-25T09:24:58.776Z,19.90
2019-05-25T09:25:58.880Z,20.12
2019-05-25T09:26:58.790Z,20.08
2019-05-25T09:27:58.773Z,20.29
2019-05-25T09:29:04.448Z,20.40
2019-05-25T09:29:59.808Z,20.53
2019-05-25T09:30:58.770Z,20.67
2019-05-25T09:31:58.887Z,20.64
2019-05-25T09:32:58.812Z,20.75
2019-05-25T09:33:58.835Z,20.86
2019-05-25T09:34:58.902Z,20.93
2019-05-25T09:35:58.842Z,20.89
2019-05-25T09:36:58.873Z,20.90
2019-05-25T09:37:58.824Z,20.80
2019-05-25T09:38:58.853Z,20.64
2019-05-25T09:39:58.961Z,20.56
2019-05-25T09:40:58.878Z,20.63
2019-05-25T09:41:58.905Z,20.60
2019-05-25T09:42:58.904Z,20.56
2019-05-25T09:43:58.902Z,20.37
2019-05-25T09:44:58.961Z,20.12
2019-05-25T11:13:16.869Z,22.76
2019-05-25T11:14:16.832Z,22.80
2019-05-25T11:15:16.892Z,22.84
2019-05-25T11:16:16.871Z,22.88
2019-05-25T11:17:16.864Z,23.02
2019-05-25T11:18:16.889Z,22.80
2019-05-25T11:19:16.888Z,22.83
2019-05-25T11:20:16.915Z,22.86
2019-05-25T11:21:16.918Z,22.81
2019-05-25T11:22:16.939Z,22.98
2019-05-25T11:23:16.972Z,23.08
2019-05-25T11:24:16.953Z,23.17
2019-05-25T11:25:16.963Z,22.95
2019-05-25T11:26:17.014Z,23.08
2019-05-25T11:27:16.979Z,23.25
2019-05-25T11:28:17.070Z,23.44
2019-05-25T11:29:17.022Z,23.47
2019-05-25T11:30:17.019Z,23.54
2019-05-25T11:31:17.070Z,23.49
2019-05-25T11:32:17.128Z,23.52
2019-05-25T11:33:17.098Z,23.63
2019-05-25T11:34:17.104Z,23.48
2019-05-25T11:35:17.102Z,23.56
2019-05-25T11:36:17.146Z,23.62
2019-05-25T11:37:17.160Z,23.49
2019-05-25T11:38:17.119Z,23.49
2019-05-25T11:39:17.136Z,23.69
2019-05-25T11:40:17.149Z,23.73
2019-05-25T11:41:17.406Z,23.71
2019-05-25T11:42:17.500Z,23.69
2019-05-25T11:43:17.361Z,23.84
2019-05-25T11:44:17.212Z,23.70
2019-05-25T11:45:17.649Z,23.67
2019-05-25T11:46:17.327Z,23.74
2019-05-25T11:47:17.345Z,23.66
2019-05-25T11:48:17.385Z,23.63
2019-05-25T11:49:22.626Z,23.64
2019-05-25T11:50:17.393Z,23.70
2019-05-25T11:51:17.593Z,23.66
2019-05-25T11:52:17.697Z,23.52
2019-05-25T11:53:17.334Z,23.54
2019-05-25T11:54:17.498Z,23.49
2019-05-25T11:55:17.412Z,23.45
2019-05-25T11:56:17.353Z,23.28
2019-05-25T11:57:17.382Z,23.34
2019-05-25T11:58:17.745Z,23.21
2019-05-25T11:59:17.382Z,23.11
2019-05-25T12:00:24.795Z,22.95
2019-05-25T12:01:17.475Z,22.89
2019-05-25T12:02:17.445Z,22.68
2019-05-25T12:03:17.449Z,22.61
2019-05-25T12:04:17.466Z,22.67
2019-05-25T12:05:17.493Z,22.76
2019-05-25T12:06:17.497Z,22.74
2019-05-25T12:07:19.838Z,22.99
2019-05-25T12:08:17.524Z,23.10
2019-05-25T12:09:17.572Z,22.93
2019-05-25T12:10:17.543Z,22.93
2019-05-25T12:11:17.544Z,23.04
2019-05-25T12:12:17.549Z,23.07
2019-05-25T12:13:17.596Z,23.10
2019-05-25T12:14:17.602Z,23.16
2019-05-25T12:15:17.883Z,23.18
2019-05-25T12:16:17.640Z,23.10
2019-05-25T12:17:17.624Z,23.17
2019-05-25T12:18:17.623Z,23.02
2019-05-25T12:19:17.723Z,22.99
2019-05-25T12:20:17.734Z,22.98
2019-05-25T12:21:17.704Z,22.86
2019-05-25T12:22:17.690Z,22.88
2019-05-25T12:23:17.706Z,23.07
2019-05-25T12:24:17.713Z,23.08
2019-05-25T12:25:18.729Z,22.91
2019-05-25T12:26:18.795Z,23.07
2019-05-25T12:27:17.788Z,23.17
2019-05-25T12:28:17.826Z,23.28
2019-05-25T12:29:17.772Z,23.29
2019-05-25T12:30:17.803Z,23.26
2019-05-25T12:31:17.847Z,23.39
2019-05-25T12:32:17.807Z,23.49
2019-05-25T12:33:17.837Z,23.44
2019-05-25T12:34:17.896Z,23.39
2019-05-25T12:35:17.832Z,23.48
2019-05-25T12:36:17.878Z,23.67
2019-05-25T12:37:17.943Z,23.55
2019-05-25T12:38:17.870Z,23.51
2019-05-25T12:39:17.957Z,23.26
2019-05-25T12:40:17.979Z,23.21
2019-05-25T12:41:18.944Z,23.25
2019-05-25T12:42:17.922Z,23.10
2019-05-25T12:43:17.941Z,23.04
2019-05-25T12:44:17.980Z,23.06
2019-05-25T12:45:17.967Z,23.08
2019-05-25T12:46:18.110Z,23.14
2019-05-25T12:47:18.040Z,23.08
2019-05-25T12:48:18.003Z,23.06
2019-05-25T12:49:18.028Z,22.98
2019-05-25T12:50:18.103Z,22.80
2019-05-25T12:51:18.134Z,22.62
2019-05-25T12:52:18.054Z,22.56
2019-05-25T12:53:18.063Z,22.38
2019-05-25T12:54:18.104Z,22.26
2019-05-25T12:55:18.114Z,22.36
2019-05-25T12:56:19.794Z,22.37
2019-05-25T12:57:18.125Z,22.52
2019-05-25T12:58:18.133Z,22.40
2019-05-25T12:59:18.171Z,22.38
2019-05-25T13:00:18.184Z,22.31
2019-05-25T13:01:18.168Z,22.26
2019-05-25T13:02:18.176Z,22.15
2019-05-25T13:03:18.214Z,22.16
2019-05-25T13:04:18.225Z,22.15
2019-05-25T13:05:32.929Z,22.06
2019-05-25T13:06:18.556Z,21.97
2019-05-25T13:07:18.275Z,21.84
2019-05-25T13:08:18.499Z,21.78
2019-05-25T13:09:18.260Z,21.97
2019-05-25T13:10:18.277Z,22.16
2019-05-25T13:11:19.029Z,22.12
2019-05-25T13:12:18.327Z,22.23
2019-05-25T13:13:18.620Z,22.36
2019-05-25T13:14:18.376Z,22.47
2019-05-25T13:15:18.334Z,22.34
2019-05-25T13:16:18.365Z,22.37
2019-05-25T13:17:18.369Z,22.47
2019-05-25T13:18:18.413Z,22.44
2019-05-25T13:19:18.491Z,22.44
2019-05-25T13:20:18.593Z,22.56
2019-05-25T13:21:18.399Z,22.51
2019-05-25T13:22:18.435Z,22.63
2019-05-25T13:23:18.510Z,22.65
2019-05-25T13:24:18.453Z,22.62
2019-05-25T13:25:18.443Z,22.80
2019-05-25T13:26:18.467Z,22.78
2019-05-25T13:27:18.467Z,22.65
2019-05-25T13:28:19.031Z,22.91
2019-05-25T13:29:18.544Z,22.96
2019-05-25T13:30:18.506Z,22.91
2019-05-25T13:31:18.555Z,22.81
2019-05-25T13:32:18.561Z,22.91
2019-05-25T13:33:18.543Z,22.84
2019-05-25T13:34:18.632Z,22.70
2019-05-25T13:35:18.589Z,22.65
2019-05-25T13:36:18.624Z,22.38
2019-05-25T13:37:18.610Z,22.33
2019-05-25T13:38:18.641Z,22.46
2019-05-25T13:39:18.624Z,22.33
2019-05-25T13:40:18.861Z,22.53
2019-05-25T13:41:18.653Z,22.41
2019-05-25T13:42:18.679Z,22.41
2019-05-25T13:43:18.698Z,22.37
2019-05-25T13:44:18.685Z,22.08
2019-05-25T13:45:18.705Z,22.23
2019-05-25T13:46:18.721Z,22.06
2019-05-25T13:47:18.757Z,22.06
2019-05-25T13:48:18.909Z,21.88
2019-05-25T13:49:18.751Z,21.91
2019-05-25T13:50:18.764Z,21.89
2019-05-25T13:51:18.791Z,22.03
2019-05-25T13:52:18.778Z,21.80
2019-05-25T13:53:18.814Z,21.68
2019-05-25T13:54:18.806Z,21.45
2019-05-25T13:55:18.818Z,21.48
2019-05-25T13:56:18.839Z,21.59
2019-05-25T13:57:18.838Z,21.68
2019-05-25T13:58:18.913Z,21.68
2019-05-25T13:59:18.866Z,21.72
2019-05-25T14:00:18.876Z,21.63
2019-05-25T14:01:27.869Z,21.62
2019-05-25T14:02:19.047Z,21.63
2019-05-25T14:03:18.962Z,21.66
2019-05-25T14:04:18.980Z,21.81
2019-05-25T14:05:18.921Z,21.92
2019-05-25T14:06:18.936Z,21.84
2019-05-25T14:07:18.966Z,21.84
2019-05-25T14:08:18.996Z,21.94
2019-05-25T14:09:18.982Z,21.80
2019-05-25T14:10:18.992Z,21.78
2019-05-25T14:11:19.011Z,21.88
2019-05-25T14:12:19.019Z,22.01
2019-05-25T14:13:19.133Z,22.04
2019-05-25T14:14:19.042Z,22.06
2019-05-25T14:15:19.072Z,22.10
2019-05-25T14:16:19.058Z,22.06
2019-05-25T14:17:19.068Z,22.23
2019-05-25T14:18:19.094Z,22.22
2019-05-25T14:19:19.085Z,22.07
2019-05-25T14:20:19.147Z,22.10